East Brunswick, NJ - U.S.A.

40° 26' 15"N, 74° 23' 24"W, Elevation 138 ft.

Monday, September 22, 2014
4:10:00 PM (Eastern)

265th day of the year

Updated and refreshed every 2 minutes. Weather computer in use: Davis Vantage PRO2 Plus


Current Weather:

Current Today's Highs and Lows
Temperature 69.5°F (20.8°C) ↓ 71.2° 2:14 PM
60.4° 6:58 AM
Dew Point 48.9°F (9.4°C) ↓ 66.8° 12:00 AM
48.0° 3:47 PM
Humidity 48% 93% 12:00 AM
48% 3:03 PM
Wind Gust NW 20 mph WNW 24 9:06 AM
SW 0 12:07 AM
Wind Speed WNW 5 mph ↓
Light breeze (2)
WNW 14 10:12 AM
NW 0 1:38 AM
Precipitation 0.00" (0.00 mm) 1
Last 24 hours 0.00"
Instantaneous rate 0.00"/hr
Storm total 0.00"
0.00"2 12:00 AM
0.00"2 12:00 AM
Barometer 29.927" (1013.5 mb)
Rising
29.928" 3:27 PM
29.614" 12:12 AM
Wind Chill Gust 70°F (21°C) 71° 2:14 PM
59° 7:03 AM
Wind Chill Avg 70°F (21°C) 71° 2:14 PM
60° 7:00 AM
Heat Index 69°F (20.6°C) 70° 2:13 PM
60° 6:27 AM
Sunshine 452 W/m2
Sunshine minutes 455
1053 12:59 PM
0 12:00 AM
UV Index  1.2 5.0 12:58 PM
0.0 12:00 AM
1. Daily total rainfall.
2. Maximum and minimum rainfall are the instantaneous rainfall rates.

'KEBR' METAR REPORT:

METAR KEBR 222010Z AUTO 31004G17KT 21/09 A2993 RMK AO1 SLP135 T02080094 

Yesterday's Weather and More...

Webcam
EBWeather Image

Video - Last 3 Hours

Video - Yesterday

Video - Last 3 Days

Weather Data from East Brunswick, NJ

Data generated by WxSolution Version 1.8.7, Build 2013.11.03.